createdAt,value
2018-02-02T00:00:39.844Z,1.90
2018-02-02T00:03:07.305Z,1.80
2018-02-02T00:05:34.812Z,1.80
2018-02-02T00:08:02.262Z,1.80
2018-02-02T00:10:29.771Z,1.80
2018-02-02T00:12:57.252Z,1.80
2018-02-02T00:15:24.732Z,1.70
2018-02-02T00:17:52.203Z,1.70
2018-02-02T00:20:19.702Z,1.80
2018-02-02T00:22:47.212Z,1.70
2018-02-02T00:25:14.650Z,1.60
2018-02-02T00:27:42.098Z,1.60
2018-02-02T00:30:09.544Z,1.60
2018-02-02T00:32:38.265Z,1.60
2018-02-02T00:35:05.818Z,1.50
2018-02-02T00:37:33.283Z,1.50
2018-02-02T00:40:00.711Z,1.50
2018-02-02T00:42:28.170Z,1.40
2018-02-02T00:44:55.635Z,1.50
2018-02-02T00:47:23.871Z,1.50
2018-02-02T00:49:51.352Z,1.50
2018-02-02T00:52:19.411Z,1.40
2018-02-02T00:54:46.888Z,1.50
2018-02-02T00:57:14.335Z,1.60
2018-02-02T00:59:41.798Z,1.60
2018-02-02T01:02:09.282Z,1.60
2018-02-02T01:04:36.758Z,1.50
2018-02-02T01:07:04.190Z,1.50
2018-02-02T01:09:31.647Z,1.50
2018-02-02T01:11:59.907Z,1.50
2018-02-02T01:14:27.376Z,1.50
2018-02-02T01:16:54.820Z,1.50
2018-02-02T01:19:26.160Z,1.50
2018-02-02T01:21:53.653Z,1.50
2018-02-02T01:24:21.052Z,1.50
2018-02-02T01:26:48.534Z,1.50
2018-02-02T01:29:15.968Z,1.60
2018-02-02T01:31:43.452Z,1.50
2018-02-02T01:34:10.909Z,1.50
2018-02-02T01:36:38.404Z,1.50
2018-02-02T01:39:05.842Z,1.50
2018-02-02T01:41:34.068Z,1.50
2018-02-02T01:44:01.491Z,1.50
2018-02-02T01:46:28.936Z,1.50
2018-02-02T01:48:56.399Z,1.40
2018-02-02T01:51:24.356Z,1.50
2018-02-02T01:53:52.596Z,1.40
2018-02-02T01:56:20.034Z,1.40
2018-02-02T01:58:47.478Z,1.40
2018-02-02T02:01:15.696Z,1.40
2018-02-02T02:03:43.204Z,1.40
2018-02-02T02:06:10.637Z,1.50
2018-02-02T02:08:38.099Z,1.50
2018-02-02T02:11:05.552Z,1.50
2018-02-02T02:13:33.028Z,1.50
2018-02-02T02:16:00.522Z,1.60
2018-02-02T02:18:27.968Z,1.60
2018-02-02T02:20:55.426Z,1.60
2018-02-02T02:23:22.906Z,1.70
2018-02-02T02:25:50.358Z,1.70
2018-02-02T02:28:17.800Z,1.80
2018-02-02T02:30:45.257Z,1.70
2018-02-02T02:33:12.711Z,1.80
2018-02-02T02:35:40.175Z,1.70
2018-02-02T02:38:07.621Z,1.70
2018-02-02T02:40:35.245Z,1.70
2018-02-02T02:43:02.806Z,1.70
2018-02-02T02:45:30.266Z,1.70
2018-02-02T02:47:57.754Z,1.80
2018-02-02T02:50:25.294Z,1.60
2018-02-02T02:52:52.762Z,1.70
2018-02-02T02:55:20.232Z,1.60
2018-02-02T02:57:47.715Z,1.60
2018-02-02T03:00:15.174Z,1.70
2018-02-02T03:02:42.623Z,1.70
2018-02-02T03:05:10.102Z,1.80
2018-02-02T03:07:37.623Z,1.80
2018-02-02T03:10:05.099Z,1.90
2018-02-02T03:12:32.663Z,1.90
2018-02-02T03:15:00.147Z,1.90
2018-02-02T03:17:27.671Z,2.00
2018-02-02T03:19:55.192Z,2.00
2018-02-02T03:22:22.922Z,1.90
2018-02-02T03:24:50.378Z,1.80
2018-02-02T03:27:17.888Z,1.80
2018-02-02T03:29:46.738Z,1.80
2018-02-02T03:32:14.713Z,1.80
2018-02-02T03:34:42.142Z,1.90
2018-02-02T03:37:09.602Z,1.80
2018-02-02T03:39:37.062Z,1.80
2018-02-02T03:42:04.511Z,1.80
2018-02-02T03:44:31.990Z,1.70
2018-02-02T03:46:59.484Z,1.70
2018-02-02T03:49:27.902Z,1.80
2018-02-02T03:51:55.371Z,1.80
2018-02-02T03:54:22.826Z,1.80
2018-02-02T03:56:50.258Z,1.80
2018-02-02T03:59:17.751Z,1.80
2018-02-02T04:01:45.180Z,1.90
2018-02-02T04:04:12.655Z,2.00
2018-02-02T04:06:40.136Z,2.00
2018-02-02T04:09:07.619Z,2.10
2018-02-02T04:11:35.876Z,2.30
2018-02-02T04:14:04.119Z,2.20
2018-02-02T04:16:31.561Z,2.20
2018-02-02T04:18:59.035Z,2.20
2018-02-02T04:21:26.902Z,2.30
2018-02-02T04:23:54.388Z,2.30
2018-02-02T04:26:21.839Z,2.30
2018-02-02T04:28:49.275Z,2.30
2018-02-02T04:31:16.731Z,2.30
2018-02-02T04:33:44.185Z,2.30
2018-02-02T04:36:15.181Z,2.20
2018-02-02T04:38:42.768Z,2.20
2018-02-02T04:41:10.239Z,2.20
2018-02-02T04:43:37.675Z,2.20
2018-02-02T04:46:05.152Z,2.30
2018-02-02T04:48:32.591Z,2.20
2018-02-02T04:51:00.051Z,2.20
2018-02-02T04:53:28.332Z,2.10
2018-02-02T04:55:55.815Z,2.10
2018-02-02T04:58:23.310Z,2.20
2018-02-02T05:00:50.787Z,2.10
2018-02-02T05:03:18.245Z,2.20
2018-02-02T05:05:45.692Z,2.30
2018-02-02T05:08:13.174Z,2.30
2018-02-02T05:10:40.614Z,2.30
2018-02-02T05:13:08.078Z,2.30
2018-02-02T05:15:35.552Z,2.40
2018-02-02T05:18:03.047Z,2.50
2018-02-02T05:20:30.492Z,2.40
2018-02-02T05:22:58.722Z,2.60
2018-02-02T05:25:26.542Z,2.60
2018-02-02T05:27:54.750Z,2.70
2018-02-02T05:30:22.236Z,2.70
2018-02-02T05:32:54.007Z,2.70
2018-02-02T05:35:21.463Z,2.70
2018-02-02T05:37:48.923Z,2.60
2018-02-02T05:40:17.240Z,2.60
2018-02-02T05:42:44.698Z,2.60
2018-02-02T05:45:12.212Z,2.60
2018-02-02T05:47:39.675Z,2.60
2018-02-02T05:50:07.278Z,2.60
2018-02-02T05:52:34.729Z,2.60
2018-02-02T05:55:02.218Z,2.60
2018-02-02T05:57:29.711Z,2.60
2018-02-02T05:59:57.311Z,2.60
2018-02-02T06:02:24.765Z,2.60
2018-02-02T06:04:52.270Z,2.60
2018-02-02T06:07:20.277Z,2.50
2018-02-02T06:09:47.695Z,2.60
2018-02-02T06:12:15.945Z,2.70
2018-02-02T06:14:43.400Z,2.80
2018-02-02T06:17:10.863Z,2.70
2018-02-02T06:19:38.331Z,2.70
2018-02-02T06:22:06.581Z,2.50
2018-02-02T06:24:34.053Z,2.50
2018-02-02T06:27:01.516Z,2.60
2018-02-02T06:29:28.978Z,2.60
2018-02-02T06:31:57.222Z,2.70
2018-02-02T06:34:24.659Z,2.70
2018-02-02T06:37:06.978Z,2.70
2018-02-02T06:39:34.435Z,2.80
2018-02-02T06:42:01.911Z,2.80
2018-02-02T06:44:29.396Z,2.80
2018-02-02T06:46:56.948Z,2.80
2018-02-02T06:49:25.231Z,2.90
2018-02-02T06:51:52.683Z,2.90
2018-02-02T06:54:20.152Z,2.90
2018-02-02T06:56:47.579Z,2.80
2018-02-02T06:59:15.823Z,2.70
2018-02-02T07:01:43.286Z,2.70
2018-02-02T07:04:10.789Z,2.70
2018-02-02T07:06:38.246Z,2.80
2018-02-02T07:09:05.711Z,2.70
2018-02-02T07:11:33.214Z,2.70
2018-02-02T07:14:00.753Z,2.60
2018-02-02T07:16:28.226Z,2.60
2018-02-02T07:18:55.727Z,2.60
2018-02-02T07:21:23.198Z,2.60
2018-02-02T07:23:50.628Z,2.50
2018-02-02T07:26:18.863Z,2.50
2018-02-02T07:28:46.312Z,2.50
2018-02-02T07:31:13.786Z,2.50
2018-02-02T07:33:41.223Z,2.50
2018-02-02T07:36:08.702Z,2.50
2018-02-02T07:38:36.135Z,2.40
2018-02-02T07:41:03.594Z,2.40
2018-02-02T07:43:31.095Z,2.40
2018-02-02T07:45:59.316Z,2.40
2018-02-02T07:48:26.802Z,2.50
2018-02-02T07:50:54.298Z,2.40
2018-02-02T07:53:21.783Z,2.40
2018-02-02T07:55:49.307Z,2.40
2018-02-02T07:58:16.757Z,2.40
2018-02-02T08:03:44.989Z,2.50
2018-02-02T08:06:12.488Z,2.50
2018-02-02T08:08:40.068Z,2.50
2018-02-02T08:11:08.283Z,2.50
2018-02-02T08:13:35.787Z,2.50
2018-02-02T08:16:03.231Z,2.60
2018-02-02T08:18:30.764Z,2.50
2018-02-02T08:20:58.272Z,2.60
2018-02-02T08:23:25.746Z,2.50
2018-02-02T08:25:53.224Z,2.50
2018-02-02T08:28:20.699Z,2.50
2018-02-02T08:30:48.181Z,2.60
2018-02-02T08:33:15.627Z,2.60
2018-02-02T08:35:43.111Z,2.60
2018-02-02T08:38:10.625Z,2.60
2018-02-02T08:40:38.099Z,2.70
2018-02-02T08:43:05.598Z,2.70
2018-02-02T08:45:33.839Z,2.60
2018-02-02T08:48:01.353Z,2.60
2018-02-02T08:50:28.853Z,2.80
2018-02-02T08:52:56.315Z,2.80
2018-02-02T08:55:24.561Z,2.80
2018-02-02T08:57:52.091Z,2.80
2018-02-02T09:00:19.554Z,2.90
2018-02-02T09:02:47.071Z,3.10
2018-02-02T09:05:15.739Z,3.50
2018-02-02T09:07:43.219Z,3.50
2018-02-02T09:10:10.666Z,3.60
2018-02-02T09:12:38.957Z,3.60
2018-02-02T09:15:06.433Z,3.70
2018-02-02T09:17:33.891Z,3.60
2018-02-02T09:20:01.355Z,3.50
2018-02-02T09:22:28.871Z,3.40
2018-02-02T09:24:56.357Z,3.50
2018-02-02T09:27:24.148Z,3.60
2018-02-02T09:29:51.615Z,3.70
2018-02-02T09:32:19.064Z,3.70
2018-02-02T09:34:46.562Z,3.60
2018-02-02T09:37:14.435Z,3.60
2018-02-02T09:39:41.919Z,3.60
2018-02-02T09:42:09.372Z,3.60
2018-02-02T09:44:36.973Z,3.70
2018-02-02T09:47:05.441Z,3.60
2018-02-02T09:49:33.687Z,3.70
2018-02-02T09:52:01.153Z,3.60
2018-02-02T09:54:28.634Z,3.70
2018-02-02T09:56:56.074Z,3.70
2018-02-02T09:59:23.632Z,3.70
2018-02-02T10:01:51.086Z,3.70
2018-02-02T10:04:18.632Z,3.70
2018-02-02T10:06:46.095Z,3.70
2018-02-02T10:09:13.573Z,3.70
2018-02-02T10:11:41.008Z,3.70
2018-02-02T10:14:08.575Z,3.70
2018-02-02T10:16:36.051Z,3.60
2018-02-02T10:19:04.305Z,3.60
2018-02-02T10:21:31.775Z,3.50
2018-02-02T10:23:59.320Z,3.60
2018-02-02T10:26:26.775Z,3.60
2018-02-02T10:28:54.284Z,3.70
2018-02-02T10:31:21.760Z,3.70
2018-02-02T10:33:49.253Z,3.70
2018-02-02T10:36:16.785Z,3.80
2018-02-02T10:38:44.254Z,3.90
2018-02-02T10:41:11.717Z,4.10
2018-02-02T10:43:39.275Z,4.10
2018-02-02T10:46:06.767Z,4.40
2018-02-02T10:48:34.211Z,4.60
2018-02-02T10:51:02.490Z,4.70
2018-02-02T10:53:30.658Z,4.70
2018-02-02T10:55:58.119Z,4.80
2018-02-02T10:58:26.695Z,4.70
2018-02-02T11:00:59.881Z,4.80
2018-02-02T11:03:31.127Z,4.70
2018-02-02T11:05:58.601Z,4.70
2018-02-02T11:08:26.071Z,4.60
2018-02-02T11:10:57.902Z,4.60
2018-02-02T11:13:26.442Z,4.50
2018-02-02T11:15:53.956Z,4.50
2018-02-02T11:18:21.498Z,4.60
2018-02-02T11:20:48.967Z,4.60
2018-02-02T11:23:37.922Z,4.60
2018-02-02T11:26:05.384Z,4.70
2018-02-02T11:28:32.890Z,4.70
2018-02-02T11:31:00.408Z,4.80
2018-02-02T11:33:29.013Z,4.60
2018-02-02T11:35:56.496Z,4.70
2018-02-02T11:38:23.959Z,4.80
2018-02-02T11:40:51.419Z,4.80
2018-02-02T11:43:22.757Z,4.90
2018-02-02T11:45:50.219Z,5.00
2018-02-02T11:48:17.676Z,5.10
2018-02-02T11:50:45.115Z,5.10
2018-02-02T11:53:12.574Z,5.00
2018-02-02T11:55:40.023Z,5.00
2018-02-02T11:58:07.512Z,5.00
2018-02-02T12:00:34.964Z,5.00
2018-02-02T12:03:02.418Z,5.00
2018-02-02T12:05:29.998Z,4.90
2018-02-02T12:07:57.457Z,4.90
2018-02-02T12:10:24.894Z,4.80
2018-02-02T12:12:52.374Z,4.70
2018-02-02T12:15:21.121Z,4.60
2018-02-02T12:17:48.616Z,4.50
2018-02-02T12:20:16.064Z,4.50
2018-02-02T12:22:48.023Z,4.50
2018-02-02T12:25:21.941Z,4.40
2018-02-02T12:30:59.877Z,4.30
2018-02-02T12:33:31.587Z,4.30
2018-02-02T12:35:59.092Z,4.20
2018-02-02T12:38:27.315Z,4.20
2018-02-02T12:40:54.849Z,4.10
2018-02-02T12:43:23.176Z,4.00
2018-02-02T12:45:51.446Z,3.90
2018-02-02T12:48:42.432Z,3.80
2018-02-02T12:51:16.270Z,3.70
2018-02-02T12:53:44.525Z,3.60
2018-02-02T12:56:11.994Z,3.60
2018-02-02T12:58:40.207Z,3.60
2018-02-02T13:01:07.666Z,3.50
2018-02-02T13:03:35.175Z,3.50
2018-02-02T13:06:02.730Z,3.40
2018-02-02T13:08:30.186Z,3.30
2018-02-02T13:10:57.679Z,3.20
2018-02-02T13:13:25.268Z,3.30
2018-02-02T13:15:52.755Z,3.30
2018-02-02T13:18:20.247Z,3.30
2018-02-02T13:20:47.692Z,3.30
2018-02-02T13:23:15.200Z,3.20
2018-02-02T13:25:43.275Z,3.20
2018-02-02T13:28:10.762Z,3.20
2018-02-02T13:30:38.386Z,3.20
2018-02-02T13:33:06.720Z,3.20
2018-02-02T13:35:34.170Z,3.30
2018-02-02T13:38:01.640Z,3.30
2018-02-02T13:40:29.112Z,3.20
2018-02-02T13:42:56.572Z,3.30
2018-02-02T13:45:24.073Z,3.30
2018-02-02T13:47:52.353Z,3.20
2018-02-02T13:50:19.869Z,3.20
2018-02-02T13:52:47.367Z,3.20
2018-02-02T13:55:14.879Z,3.20
2018-02-02T13:57:43.130Z,3.10
2018-02-02T14:00:10.626Z,3.10
2018-02-02T14:02:38.149Z,3.10
2018-02-02T14:05:05.607Z,3.10
2018-02-02T14:07:33.757Z,3.20
2018-02-02T14:10:02.036Z,3.30
2018-02-02T14:12:29.831Z,3.20
2018-02-02T14:14:57.304Z,3.30
2018-02-02T14:17:24.806Z,3.30
2018-02-02T14:19:53.102Z,3.40
2018-02-02T14:22:20.630Z,3.40
2018-02-02T14:24:48.093Z,3.50
2018-02-02T14:27:16.366Z,3.60
2018-02-02T14:29:44.624Z,3.60
2018-02-02T14:32:12.127Z,3.60
2018-02-02T14:34:39.598Z,3.60
2018-02-02T14:37:07.134Z,3.70
2018-02-02T14:39:34.582Z,3.70
2018-02-02T14:42:02.807Z,3.80
2018-02-02T14:44:30.250Z,3.80
2018-02-02T14:46:57.721Z,3.80
2018-02-02T14:49:25.224Z,3.80
2018-02-02T14:51:52.729Z,3.90
2018-02-02T14:54:20.251Z,3.90
2018-02-02T14:56:47.800Z,4.00
2018-02-02T14:59:15.306Z,3.90
2018-02-02T15:01:42.753Z,3.90
2018-02-02T15:04:10.311Z,3.90
2018-02-02T15:06:39.187Z,3.90
2018-02-02T15:09:06.715Z,3.80
2018-02-02T15:11:34.204Z,3.90
2018-02-02T15:14:01.659Z,4.00
2018-02-02T15:16:29.162Z,3.90
2018-02-02T15:18:56.662Z,3.90
2018-02-02T15:21:24.151Z,3.90
2018-02-02T15:23:51.707Z,3.90
2018-02-02T15:26:19.191Z,4.00
2018-02-02T15:28:47.419Z,4.00
2018-02-02T15:31:14.870Z,4.00
2018-02-02T15:33:43.781Z,4.00
2018-02-02T15:36:11.247Z,4.00
2018-02-02T15:38:38.713Z,4.00
2018-02-02T15:41:07.709Z,4.00
2018-02-02T15:43:35.168Z,4.00
2018-02-02T15:46:03.416Z,4.00
2018-02-02T15:48:30.889Z,4.00
2018-02-02T15:50:58.372Z,4.00
2018-02-02T15:53:25.883Z,4.10
2018-02-02T15:55:53.378Z,4.10
2018-02-02T15:58:20.892Z,4.10
2018-02-02T16:00:48.346Z,4.10
2018-02-02T16:03:16.155Z,4.10
2018-02-02T16:05:43.655Z,4.10
2018-02-02T16:08:11.210Z,4.10
2018-02-02T16:10:38.714Z,4.10
2018-02-02T16:13:06.171Z,4.20
2018-02-02T16:15:33.702Z,4.20
2018-02-02T16:18:01.269Z,4.20
2018-02-02T16:20:28.753Z,4.30
2018-02-02T16:22:56.214Z,4.30
2018-02-02T16:25:23.715Z,4.30
2018-02-02T16:27:51.177Z,4.30
2018-02-02T16:30:19.505Z,4.40
2018-02-02T16:32:47.372Z,4.30
2018-02-02T16:35:15.143Z,4.30
2018-02-02T16:37:42.592Z,4.40
2018-02-02T16:40:13.912Z,4.30
2018-02-02T16:42:41.389Z,4.40
2018-02-02T16:45:08.937Z,4.40
2018-02-02T16:47:36.599Z,4.50
2018-02-02T16:50:04.128Z,4.50
2018-02-02T16:52:31.580Z,4.50
2018-02-02T16:54:59.239Z,4.40
2018-02-02T16:57:26.756Z,4.50
2018-02-02T16:59:55.029Z,4.50
2018-02-02T17:02:23.244Z,4.50
2018-02-02T17:04:50.697Z,4.50
2018-02-02T17:07:18.232Z,4.50
2018-02-02T17:09:46.482Z,4.50
2018-02-02T17:12:14.360Z,4.50
2018-02-02T17:14:41.913Z,4.40
2018-02-02T17:17:09.497Z,4.50
2018-02-02T17:19:36.970Z,4.50
2018-02-02T17:22:04.444Z,4.40
2018-02-02T17:24:31.909Z,4.40
2018-02-02T17:26:59.525Z,4.40
2018-02-02T17:29:26.961Z,4.40
2018-02-02T17:31:54.432Z,4.50
2018-02-02T17:34:21.875Z,4.50
2018-02-02T17:36:49.336Z,4.50
2018-02-02T17:39:16.793Z,4.50
2018-02-02T17:41:44.231Z,4.50
2018-02-02T17:44:11.744Z,4.60
2018-02-02T17:46:39.257Z,4.60
2018-02-02T17:49:06.738Z,4.60
2018-02-02T17:51:34.192Z,4.60
2018-02-02T17:54:01.676Z,4.60
2018-02-02T17:56:29.166Z,4.70
2018-02-02T17:58:57.432Z,4.60
2018-02-02T18:01:27.559Z,4.60
2018-02-02T18:03:55.099Z,4.50
2018-02-02T18:06:22.543Z,4.60
2018-02-02T18:08:50.031Z,4.60
2018-02-02T18:11:17.460Z,4.70
2018-02-02T18:13:44.924Z,4.70
2018-02-02T18:16:12.406Z,4.60
2018-02-02T18:18:39.870Z,4.60
2018-02-02T18:21:07.396Z,4.60
2018-02-02T18:23:34.851Z,4.60
2018-02-02T18:26:02.313Z,4.60
2018-02-02T18:28:33.723Z,4.60
2018-02-02T18:31:01.229Z,4.70
2018-02-02T18:33:29.564Z,4.70
2018-02-02T18:35:57.049Z,4.70
2018-02-02T18:38:25.316Z,4.60
2018-02-02T18:40:52.789Z,4.60
2018-02-02T18:43:20.268Z,4.70
2018-02-02T18:45:47.803Z,4.70
2018-02-02T18:48:16.033Z,4.70
2018-02-02T18:50:43.554Z,4.70
2018-02-02T18:53:11.798Z,4.70
2018-02-02T18:55:39.255Z,4.70
2018-02-02T18:58:06.777Z,4.70
2018-02-02T19:00:34.203Z,4.70
2018-02-02T19:03:01.679Z,4.60
2018-02-02T19:05:29.140Z,4.60
2018-02-02T19:07:56.643Z,4.70
2018-02-02T19:10:24.904Z,4.70
2018-02-02T19:12:52.352Z,4.70
2018-02-02T19:15:19.848Z,4.60
2018-02-02T19:17:47.288Z,4.60
2018-02-02T19:20:14.753Z,4.70
2018-02-02T19:22:42.220Z,4.60
2018-02-02T19:25:10.526Z,4.60
2018-02-02T19:27:37.942Z,4.60
2018-02-02T19:30:05.605Z,4.70
2018-02-02T19:32:33.968Z,4.70
2018-02-02T19:35:02.499Z,4.70
2018-02-02T19:37:29.964Z,4.70
2018-02-02T19:39:59.279Z,4.60
2018-02-02T19:42:26.833Z,4.60
2018-02-02T19:44:54.296Z,4.50
2018-02-02T19:47:21.836Z,4.50
2018-02-02T19:49:49.300Z,4.50
2018-02-02T19:52:16.829Z,4.60
2018-02-02T19:54:44.332Z,4.60
2018-02-02T19:57:26.707Z,4.60
2018-02-02T19:59:54.960Z,4.50
2018-02-02T20:02:22.467Z,4.50
2018-02-02T20:04:49.955Z,4.40
2018-02-02T20:07:17.473Z,4.40
2018-02-02T20:09:44.986Z,4.40
2018-02-02T20:12:12.442Z,4.40
2018-02-02T20:14:39.955Z,4.30
2018-02-02T20:17:11.266Z,4.20
2018-02-02T20:19:40.022Z,4.30
2018-02-02T20:22:08.264Z,4.20
2018-02-02T20:24:35.704Z,4.20
2018-02-02T20:27:03.179Z,4.10
2018-02-02T20:29:30.753Z,4.10
2018-02-02T20:32:02.973Z,4.00
2018-02-02T20:34:30.454Z,4.00
2018-02-02T20:36:57.964Z,4.00
2018-02-02T20:39:25.449Z,4.00
2018-02-02T20:41:52.926Z,4.00
2018-02-02T20:44:21.199Z,3.90
2018-02-02T20:46:48.657Z,3.90
2018-02-02T20:49:16.109Z,3.90
2018-02-02T20:51:43.579Z,3.90
2018-02-02T20:54:11.034Z,3.90
2018-02-02T20:56:38.576Z,3.90
2018-02-02T20:59:06.029Z,3.90
2018-02-02T21:01:34.090Z,3.90
2018-02-02T21:04:01.581Z,3.80
2018-02-02T21:06:29.084Z,3.80
2018-02-02T21:08:56.550Z,3.70
2018-02-02T21:11:24.114Z,3.70
2018-02-02T21:13:51.601Z,3.70
2018-02-02T21:16:19.135Z,3.80
2018-02-02T21:18:46.638Z,3.80
2018-02-02T21:21:14.083Z,3.80
2018-02-02T21:23:41.560Z,3.80
2018-02-02T21:26:09.048Z,3.80
2018-02-02T21:28:36.507Z,3.80
2018-02-02T21:31:03.992Z,3.80
2018-02-02T21:33:31.460Z,3.80
2018-02-02T21:35:58.915Z,3.80
2018-02-02T21:38:26.395Z,3.80
2018-02-02T21:40:53.843Z,3.80
2018-02-02T21:43:21.369Z,3.80
2018-02-02T21:45:48.834Z,3.80
2018-02-02T21:48:16.334Z,3.90
2018-02-02T21:50:43.868Z,3.90
2018-02-02T21:53:13.173Z,3.90
2018-02-02T21:55:40.636Z,3.90
2018-02-02T21:58:08.896Z,3.90
2018-02-02T22:00:36.392Z,3.90
2018-02-02T22:03:03.866Z,3.80
2018-02-02T22:05:31.418Z,3.80
2018-02-02T22:07:58.929Z,3.80
2018-02-02T22:10:26.897Z,3.80
2018-02-02T22:12:55.153Z,3.70
2018-02-02T22:15:22.584Z,3.70
2018-02-02T22:17:50.651Z,3.70
2018-02-02T22:20:18.161Z,3.80
2018-02-02T22:22:45.596Z,3.70
2018-02-02T22:25:13.072Z,3.70
2018-02-02T22:27:40.531Z,3.70
2018-02-02T22:30:08.669Z,3.70
2018-02-02T22:32:36.930Z,3.80
2018-02-02T22:35:04.391Z,3.80
2018-02-02T22:37:31.843Z,3.80
2018-02-02T22:39:59.332Z,3.60
2018-02-02T22:42:26.856Z,3.60
2018-02-02T22:44:55.105Z,3.70
2018-02-02T22:47:22.688Z,3.70
2018-02-02T22:49:50.144Z,3.60
2018-02-02T22:52:17.603Z,3.70
2018-02-02T22:54:45.062Z,3.60
2018-02-02T22:57:12.569Z,3.60
2018-02-02T22:59:40.047Z,3.50
2018-02-02T23:02:07.502Z,3.50
2018-02-02T23:04:34.958Z,3.60
2018-02-02T23:07:02.446Z,3.60
2018-02-02T23:09:29.927Z,3.60
2018-02-02T23:11:57.443Z,3.70
2018-02-02T23:14:24.931Z,3.60
2018-02-02T23:16:52.451Z,3.60
2018-02-02T23:19:19.923Z,3.70
2018-02-02T23:21:47.403Z,3.70
2018-02-02T23:24:14.864Z,3.70
2018-02-02T23:26:42.290Z,3.70
2018-02-02T23:29:09.822Z,3.70
2018-02-02T23:31:37.339Z,3.60
2018-02-02T23:34:04.790Z,3.60
2018-02-02T23:36:33.083Z,3.60
2018-02-02T23:39:00.596Z,3.60
2018-02-02T23:41:28.032Z,3.50
2018-02-02T23:43:55.556Z,3.60
2018-02-02T23:46:23.151Z,3.60
2018-02-02T23:48:50.880Z,3.70
2018-02-02T23:51:19.021Z,3.60
2018-02-02T23:53:47.284Z,3.70
2018-02-02T23:56:14.772Z,3.60
2018-02-02T23:58:43.053Z,3.70
